createdAt,value
2022-10-04T00:01:09.266Z,11.03
2022-10-04T00:06:33.696Z,11.05
2022-10-04T00:12:00.573Z,11.05
2022-10-04T00:17:28.087Z,11.04
2022-10-04T00:23:25.241Z,10.92
2022-10-04T00:28:51.546Z,10.87
2022-10-04T00:34:47.280Z,10.81
2022-10-04T00:40:16.718Z,10.80
2022-10-04T00:45:45.963Z,10.60
2022-10-04T00:51:20.452Z,10.53
2022-10-04T00:56:49.749Z,10.45
2022-10-04T01:02:19.828Z,10.51
2022-10-04T01:07:48.219Z,10.56
2022-10-04T01:13:17.228Z,10.50
2022-10-04T01:18:43.056Z,10.32
2022-10-04T01:24:22.858Z,10.16
2022-10-04T01:29:51.697Z,10.17
2022-10-04T01:35:18.880Z,10.24
2022-10-04T01:40:49.725Z,10.34
2022-10-04T01:46:20.179Z,10.37
2022-10-04T01:51:56.506Z,10.30
2022-10-04T01:57:31.588Z,10.28
2022-10-04T02:03:01.849Z,10.20
2022-10-04T02:08:30.437Z,10.14
2022-10-04T02:13:56.854Z,10.09
2022-10-04T02:19:28.210Z,9.93
2022-10-04T02:24:58.869Z,9.84
2022-10-04T02:30:25.339Z,9.86
2022-10-04T02:35:50.427Z,9.83
2022-10-04T02:41:25.945Z,9.76
2022-10-04T02:46:57.248Z,9.71
2022-10-04T02:52:28.213Z,9.66
2022-10-04T02:57:52.661Z,9.60
2022-10-04T03:03:24.234Z,9.54
2022-10-04T03:08:52.836Z,9.47
2022-10-04T03:14:20.998Z,9.47
2022-10-04T03:19:50.044Z,9.46
2022-10-04T03:25:18.315Z,9.48
2022-10-04T03:30:45.469Z,9.52
2022-10-04T03:36:16.742Z,9.41
2022-10-04T03:41:42.196Z,9.39
2022-10-04T03:47:11.167Z,9.28
2022-10-04T03:52:38.789Z,9.33
2022-10-04T03:58:03.907Z,9.27
2022-10-04T04:03:35.918Z,9.29
2022-10-04T04:09:02.790Z,9.21
2022-10-04T04:14:29.108Z,9.21
2022-10-04T04:19:54.417Z,9.28
2022-10-04T04:25:23.614Z,9.38
2022-10-04T04:30:53.057Z,9.51
2022-10-04T04:36:18.551Z,9.82
2022-10-04T04:41:49.541Z,10.38
2022-10-04T04:47:27.303Z,11.29
2022-10-04T04:53:00.172Z,11.53
2022-10-04T04:58:33.004Z,11.79
2022-10-04T05:04:05.295Z,12.19
2022-10-04T05:09:34.489Z,12.94
2022-10-04T05:15:02.817Z,13.16
2022-10-04T05:20:28.720Z,14.46
2022-10-04T05:25:52.758Z,14.83
2022-10-04T05:31:37.029Z,13.96
2022-10-04T05:37:23.632Z,14.01
2022-10-04T05:42:48.145Z,12.69
2022-10-04T05:48:15.309Z,13.02
2022-10-04T05:53:44.245Z,13.48
2022-10-04T05:59:17.649Z,13.43
2022-10-04T06:05:00.716Z,13.61
2022-10-04T06:10:51.195Z,13.78
2022-10-04T06:16:21.229Z,15.45
2022-10-04T06:22:06.724Z,15.94
2022-10-04T06:27:41.658Z,14.90
2022-10-04T06:33:30.131Z,17.17
2022-10-04T06:39:19.236Z,16.17
2022-10-04T06:45:00.727Z,17.34
2022-10-04T06:50:34.292Z,16.31
2022-10-04T06:56:33.776Z,16.82
2022-10-04T07:02:01.570Z,17.75
2022-10-04T07:07:38.080Z,17.38
2022-10-04T07:13:16.563Z,17.24
2022-10-04T07:18:48.389Z,15.98
2022-10-04T07:24:20.069Z,13.97
2022-10-04T07:29:47.916Z,14.91
2022-10-04T07:35:34.774Z,15.58
2022-10-04T07:41:10.508Z,15.32
2022-10-04T07:46:53.863Z,16.44
2022-10-04T07:52:42.949Z,14.09
2022-10-04T07:58:19.961Z,14.17
2022-10-04T08:04:00.313Z,14.71
2022-10-04T08:09:38.778Z,15.90
2022-10-04T08:15:26.768Z,15.74
2022-10-04T08:20:59.682Z,14.50
2022-10-04T08:26:55.858Z,15.05
2022-10-04T08:33:01.761Z,16.36
2022-10-04T08:38:45.110Z,16.95
2022-10-04T08:45:07.960Z,16.88
2022-10-04T08:51:02.678Z,17.85
2022-10-04T08:56:45.481Z,18.55
2022-10-04T09:02:48.000Z,17.49
2022-10-04T09:08:51.069Z,18.44
2022-10-04T09:14:46.393Z,16.54
2022-10-04T09:20:39.389Z,17.23
2022-10-04T09:26:21.074Z,16.47
2022-10-04T09:32:16.946Z,17.55
2022-10-04T09:37:59.033Z,18.03
2022-10-04T09:43:56.146Z,18.23
2022-10-04T09:49:47.954Z,16.50
2022-10-04T09:55:29.922Z,16.98
2022-10-04T10:01:03.372Z,17.55
2022-10-04T10:06:49.762Z,17.17
2022-10-04T10:12:55.635Z,16.62
2022-10-04T10:18:31.640Z,17.23
2022-10-04T10:24:27.812Z,16.46
2022-10-04T10:30:21.301Z,15.59
2022-10-04T10:36:04.318Z,15.17
2022-10-04T10:41:55.047Z,15.33
2022-10-04T10:47:35.553Z,15.78
2022-10-04T10:53:46.170Z,16.18
2022-10-04T10:59:38.800Z,17.04
2022-10-04T11:05:25.103Z,17.21
2022-10-04T11:11:07.901Z,17.09
2022-10-04T11:16:52.903Z,16.01
2022-10-04T11:23:00.174Z,16.27
2022-10-04T11:28:32.623Z,16.30
2022-10-04T11:34:37.908Z,15.76
2022-10-04T11:40:12.223Z,15.51
2022-10-04T11:45:57.244Z,15.30
2022-10-04T11:52:13.215Z,15.51
2022-10-04T11:57:44.463Z,15.38
2022-10-04T12:03:46.532Z,15.68
2022-10-04T12:09:20.715Z,15.26
2022-10-04T12:15:08.616Z,14.89
2022-10-04T12:20:59.677Z,15.16
2022-10-04T12:26:48.366Z,15.28
2022-10-04T12:32:16.481Z,15.43
2022-10-04T12:38:05.997Z,15.64
2022-10-04T12:43:38.656Z,14.85
2022-10-04T12:49:11.915Z,15.10
2022-10-04T12:54:40.339Z,14.92
2022-10-04T13:00:17.512Z,14.64
2022-10-04T13:05:51.889Z,14.82
2022-10-04T13:11:34.113Z,14.62
2022-10-04T13:17:30.827Z,14.49
2022-10-04T13:22:58.036Z,14.16
2022-10-04T13:28:31.978Z,14.22
2022-10-04T13:34:07.811Z,14.16
2022-10-04T13:39:52.382Z,14.00
2022-10-04T13:45:32.077Z,14.35
2022-10-04T13:51:15.565Z,14.38
2022-10-04T13:56:58.537Z,14.19
2022-10-04T14:02:53.328Z,13.97
2022-10-04T14:08:52.085Z,14.06
2022-10-04T14:14:54.168Z,14.04
2022-10-04T14:21:01.499Z,14.18
2022-10-04T14:26:54.813Z,13.86
2022-10-04T14:32:40.402Z,13.97
2022-10-04T14:38:31.785Z,13.91
2022-10-04T14:44:31.541Z,14.02
2022-10-04T14:50:09.630Z,13.80
2022-10-04T14:55:53.957Z,13.58
2022-10-04T15:01:23.530Z,13.61
2022-10-04T15:06:51.706Z,13.56
2022-10-04T15:12:58.106Z,13.55
2022-10-04T15:18:32.083Z,13.70
2022-10-04T15:24:01.427Z,13.76
2022-10-04T15:29:30.076Z,13.76
2022-10-04T15:35:12.302Z,13.76
2022-10-04T15:40:43.201Z,13.68
2022-10-04T15:46:34.119Z,13.59
2022-10-04T15:52:52.152Z,13.28
2022-10-04T15:58:58.743Z,13.09
2022-10-04T16:04:42.939Z,12.94
2022-10-04T16:10:20.181Z,12.97
2022-10-04T16:15:49.520Z,12.89
2022-10-04T16:21:26.548Z,12.70
2022-10-04T16:27:20.884Z,12.54
2022-10-04T16:33:05.154Z,12.49
2022-10-04T16:38:35.831Z,12.26
2022-10-04T16:44:03.940Z,12.18
2022-10-04T16:49:41.032Z,12.22
2022-10-04T16:55:31.726Z,12.16
2022-10-04T17:01:30.113Z,12.11
2022-10-04T17:06:58.609Z,11.97
2022-10-04T17:12:28.939Z,11.80
2022-10-04T17:18:00.435Z,11.61
2022-10-04T17:24:00.215Z,11.56
2022-10-04T17:29:43.455Z,11.52
2022-10-04T17:35:22.091Z,11.53
2022-10-04T17:40:59.285Z,11.48
2022-10-04T17:46:33.524Z,11.44
2022-10-04T17:52:21.039Z,11.34
2022-10-04T17:57:57.012Z,11.28
2022-10-04T18:03:26.368Z,11.25
2022-10-04T18:08:55.569Z,11.28
2022-10-04T18:14:39.955Z,11.30
2022-10-04T18:20:28.182Z,11.27
2022-10-04T18:25:58.395Z,11.14
2022-10-04T18:31:33.909Z,11.02
2022-10-04T18:37:06.921Z,10.90
2022-10-04T18:42:37.222Z,10.71
2022-10-04T18:48:14.742Z,10.73
2022-10-04T18:53:44.516Z,10.66
2022-10-04T18:59:39.472Z,10.46
2022-10-04T19:05:14.205Z,10.35
2022-10-04T19:10:44.691Z,10.31
2022-10-04T19:16:25.587Z,10.33
2022-10-04T19:21:59.930Z,10.36
2022-10-04T19:27:28.726Z,10.33
2022-10-04T19:33:03.485Z,10.28
2022-10-04T19:38:40.532Z,10.29
2022-10-04T19:44:23.257Z,10.23
2022-10-04T19:49:57.934Z,10.12
2022-10-04T19:55:28.437Z,10.10
2022-10-04T20:00:52.644Z,10.17
2022-10-04T20:06:22.618Z,10.22
2022-10-04T20:11:52.071Z,10.18
2022-10-04T20:17:33.991Z,10.13
2022-10-04T20:22:58.704Z,10.18
2022-10-04T20:28:43.645Z,10.10
2022-10-04T20:34:35.401Z,10.06
2022-10-04T20:40:00.421Z,10.09
2022-10-04T20:45:30.436Z,10.18
2022-10-04T20:50:55.863Z,10.22
2022-10-04T20:56:29.222Z,10.08
2022-10-04T21:02:05.171Z,9.86
2022-10-04T21:07:31.001Z,9.70
2022-10-04T21:12:55.517Z,9.43
2022-10-04T21:18:25.140Z,9.20
2022-10-04T21:23:49.988Z,9.07
2022-10-04T21:29:14.923Z,9.01
2022-10-04T21:34:52.906Z,8.96
2022-10-04T21:40:18.897Z,8.90
2022-10-04T21:45:43.060Z,8.79
2022-10-04T21:51:12.689Z,8.78
2022-10-04T21:56:37.546Z,8.77
2022-10-04T22:02:01.758Z,8.74
2022-10-04T22:07:27.346Z,8.80
2022-10-04T22:12:56.765Z,8.90
2022-10-04T22:18:21.033Z,8.98
2022-10-04T22:23:47.438Z,8.95
2022-10-04T22:29:14.859Z,8.94
2022-10-04T22:34:39.862Z,8.91
2022-10-04T22:40:08.095Z,8.89
2022-10-04T22:45:33.698Z,8.78
2022-10-04T22:50:59.083Z,8.73
2022-10-04T22:56:26.097Z,8.72
2022-10-04T23:01:50.520Z,8.69
2022-10-04T23:07:15.201Z,8.74
2022-10-04T23:12:41.282Z,8.67
2022-10-04T23:18:15.512Z,8.54
2022-10-04T23:23:39.467Z,8.49
2022-10-04T23:29:07.686Z,8.34
2022-10-04T23:34:35.377Z,8.39
2022-10-04T23:40:00.085Z,8.49
2022-10-04T23:45:27.939Z,8.62
2022-10-04T23:50:55.093Z,8.92
2022-10-04T23:56:23.016Z,9.02
